createdAt,value
2015-10-03T00:00:02.822Z,3.01
2015-10-03T00:00:15.228Z,3.03
2015-10-03T00:00:27.634Z,3.05
2015-10-03T00:00:40.056Z,3.03
2015-10-03T00:00:52.497Z,3.03
2015-10-03T00:01:04.934Z,3.06
2015-10-03T00:01:16.606Z,3.03
2015-10-03T00:01:29.028Z,3.17
2015-10-03T00:01:41.434Z,3.03
2015-10-03T00:01:53.827Z,3.16
2015-10-03T00:02:06.217Z,3.08
2015-10-03T00:02:18.608Z,3.19
2015-10-03T00:02:31.014Z,3.19
2015-10-03T00:02:43.405Z,3.16
2015-10-03T00:02:55.798Z,3.14
2015-10-03T00:03:08.204Z,3.19
2015-10-03T00:03:20.626Z,3.17
2015-10-03T00:03:33.048Z,3.21
2015-10-03T00:03:45.454Z,3.19
2015-10-03T00:03:57.895Z,3.17
2015-10-03T00:04:10.333Z,3.26
2015-10-03T00:04:22.755Z,3.23
2015-10-03T00:04:35.145Z,3.21
2015-10-03T00:04:47.536Z,3.26
2015-10-03T00:04:59.930Z,3.27
2015-10-03T00:05:12.351Z,3.32
2015-10-03T00:05:24.742Z,3.29
2015-10-03T00:05:37.133Z,3.29
2015-10-03T00:05:49.539Z,3.42
2015-10-03T00:06:01.932Z,3.46
2015-10-03T00:06:13.619Z,3.43
2015-10-03T00:06:26.025Z,3.4
2015-10-03T00:06:38.416Z,3.45
2015-10-03T00:06:50.822Z,3.48
2015-10-03T00:07:03.231Z,3.51
2015-10-03T00:07:14.935Z,3.48
2015-10-03T00:07:27.372Z,3.63
2015-10-03T00:07:39.794Z,3.57
2015-10-03T00:07:52.200Z,3.54
2015-10-03T00:08:04.594Z,3.69
2015-10-03T00:08:16.984Z,3.74
2015-10-03T00:08:29.391Z,3.75
2015-10-03T00:08:41.781Z,3.81
2015-10-03T00:08:54.174Z,3.84
2015-10-03T00:09:06.580Z,3.89
2015-10-03T00:09:18.986Z,3.93
2015-10-03T00:09:31.377Z,4
2015-10-03T00:09:43.783Z,4.02
2015-10-03T00:09:56.208Z,4.1
2015-10-03T00:10:08.614Z,4.1
2015-10-03T00:10:21.036Z,4
2015-10-03T00:10:33.458Z,4.08
2015-10-03T00:10:45.896Z,4.11
2015-10-03T00:10:58.320Z,4.14
2015-10-03T00:11:10.054Z,4.17
2015-10-03T00:11:22.429Z,4.15
2015-10-03T00:11:34.835Z,4.18
2015-10-03T00:11:47.226Z,4.26
2015-10-03T00:11:59.620Z,4.2
2015-10-03T00:12:12.011Z,4.14
2015-10-03T00:12:24.417Z,4.3
2015-10-03T00:12:36.808Z,4.33
2015-10-03T00:12:49.199Z,4.29
2015-10-03T00:13:00.904Z,4.22
2015-10-03T00:13:13.310Z,4.28
2015-10-03T00:13:25.716Z,4.38
2015-10-03T00:13:38.138Z,4.21
2015-10-03T00:13:50.560Z,4.32
2015-10-03T00:14:02.985Z,4.26
2015-10-03T00:14:15.672Z,4.24
2015-10-03T00:14:28.063Z,4.2
2015-10-03T00:14:40.454Z,4.32
2015-10-03T00:14:52.844Z,4.3
2015-10-03T00:15:04.535Z,4.3
2015-10-03T00:15:16.925Z,4.2
2015-10-03T00:15:29.316Z,4.32
2015-10-03T00:15:41.722Z,4.33
2015-10-03T00:15:54.144Z,4.22
2015-10-03T00:16:06.568Z,4.24
2015-10-03T00:16:18.990Z,4.3
2015-10-03T00:16:31.396Z,4.33
2015-10-03T00:16:43.787Z,4.29
2015-10-03T00:16:56.177Z,4.36
2015-10-03T00:17:08.587Z,4.39
2015-10-03T00:17:20.977Z,4.32
2015-10-03T00:17:33.383Z,4.35
2015-10-03T00:17:45.774Z,4.29
2015-10-03T00:17:58.165Z,4.3
2015-10-03T00:18:10.574Z,4.36
2015-10-03T00:18:22.980Z,4.39
2015-10-03T00:18:35.386Z,4.44
2015-10-03T00:18:47.793Z,4.46
2015-10-03T00:19:00.215Z,4.48
2015-10-03T00:19:12.639Z,4.42
2015-10-03T00:19:25.061Z,4.5
2015-10-03T00:19:37.468Z,4.5
2015-10-03T00:19:49.858Z,4.48
2015-10-03T00:20:02.264Z,4.48
2015-10-03T00:20:14.657Z,4.47
2015-10-03T00:20:27.048Z,4.48
2015-10-03T00:20:39.438Z,4.53
2015-10-03T00:20:51.829Z,4.5
2015-10-03T00:21:04.235Z,4.56
2015-10-03T00:21:16.629Z,4.5
2015-10-03T00:21:29.035Z,4.54
2015-10-03T00:21:41.441Z,4.57
2015-10-03T00:21:53.848Z,4.58
2015-10-03T00:22:06.285Z,4.56
2015-10-03T00:22:18.709Z,4.56
2015-10-03T00:22:31.162Z,4.58
2015-10-03T00:22:43.568Z,4.64
2015-10-03T00:22:55.959Z,4.6
2015-10-03T00:23:08.368Z,4.61
2015-10-03T00:23:20.774Z,4.75
2015-10-03T00:23:33.181Z,4.71
2015-10-03T00:23:45.571Z,4.79
2015-10-03T00:23:57.978Z,4.75
2015-10-03T00:24:10.371Z,4.75
2015-10-03T00:24:22.777Z,4.78
2015-10-03T00:24:35.199Z,4.83
2015-10-03T00:24:47.621Z,4.92
2015-10-03T00:25:00.027Z,4.85
2015-10-03T00:25:12.452Z,4.94
2015-10-03T00:25:24.890Z,4.98
2015-10-03T00:25:37.312Z,5.02
2015-10-03T00:25:49.734Z,5.03
2015-10-03T00:26:02.140Z,4.98
2015-10-03T00:26:14.533Z,4.98
2015-10-03T00:26:26.783Z,5.05
2015-10-03T00:26:39.174Z,4.95
2015-10-03T00:26:51.580Z,5
2015-10-03T00:27:03.252Z,4.94
2015-10-03T00:27:15.646Z,5
2015-10-03T00:27:28.036Z,5.02
2015-10-03T00:27:40.427Z,4.97
2015-10-03T00:27:52.833Z,5.02
2015-10-03T00:28:05.255Z,4.98
2015-10-03T00:28:17.680Z,4.98
2015-10-03T00:28:30.086Z,4.94
2015-10-03T00:28:42.524Z,4.92
2015-10-03T00:28:54.961Z,4.92
2015-10-03T00:29:07.352Z,4.88
2015-10-03T00:29:19.760Z,4.9
2015-10-03T00:29:32.151Z,4.91
2015-10-03T00:29:44.541Z,4.92
2015-10-03T00:29:56.948Z,4.97
2015-10-03T00:30:09.354Z,4.92
2015-10-03T00:30:21.762Z,4.91
2015-10-03T00:30:34.184Z,4.92
2015-10-03T00:30:46.450Z,5.02
2015-10-03T00:30:58.872Z,4.92
2015-10-03T00:31:11.278Z,4.94
2015-10-03T00:31:23.671Z,4.98
2015-10-03T00:31:35.343Z,4.97
2015-10-03T00:31:47.765Z,4.97
2015-10-03T00:32:00.156Z,5.05
2015-10-03T00:32:12.546Z,5
2015-10-03T00:32:24.941Z,5
2015-10-03T00:32:37.332Z,4.95
2015-10-03T00:32:49.738Z,4.92
2015-10-03T00:33:02.144Z,4.85
2015-10-03T00:33:14.550Z,4.83
2015-10-03T00:33:26.990Z,4.87
2015-10-03T00:33:39.412Z,4.66
2015-10-03T00:33:51.849Z,4.72
2015-10-03T00:34:04.271Z,4.57
2015-10-03T00:34:16.709Z,4.65
2015-10-03T00:34:29.101Z,4.53
2015-10-03T00:34:41.492Z,4.47
2015-10-03T00:34:53.898Z,4.39
2015-10-03T00:35:06.289Z,4.4
2015-10-03T00:35:18.679Z,4.36
2015-10-03T00:35:31.074Z,4.33
2015-10-03T00:35:43.480Z,4.28
2015-10-03T00:35:55.152Z,4.29
2015-10-03T00:36:07.574Z,4.24
2015-10-03T00:36:19.980Z,4.24
2015-10-03T00:36:32.389Z,4.24
2015-10-03T00:36:44.795Z,4.18
2015-10-03T00:36:57.217Z,4.22
2015-10-03T00:37:09.639Z,4.26
2015-10-03T00:37:22.076Z,4.21
2015-10-03T00:37:34.501Z,4.21
2015-10-03T00:37:46.923Z,4.14
2015-10-03T00:37:59.313Z,4.21
2015-10-03T00:38:11.704Z,4.29
2015-10-03T00:38:23.376Z,4.32
2015-10-03T00:38:35.065Z,4.36
2015-10-03T00:38:47.456Z,4.33
2015-10-03T00:38:59.878Z,4.39
2015-10-03T00:39:12.269Z,4.42
2015-10-03T00:39:24.659Z,4.33
2015-10-03T00:39:37.068Z,4.46
2015-10-03T00:39:49.475Z,4.47
2015-10-03T00:40:01.881Z,4.47
2015-10-03T00:40:14.303Z,4.53
2015-10-03T00:40:26.725Z,4.51
2015-10-03T00:40:39.161Z,4.54
2015-10-03T00:40:51.583Z,4.53
2015-10-03T00:41:03.989Z,4.51
2015-10-03T00:41:16.380Z,4.56
2015-10-03T00:41:28.786Z,4.53
2015-10-03T00:41:41.182Z,4.56
2015-10-03T00:41:53.589Z,4.56
2015-10-03T00:42:05.979Z,4.54
2015-10-03T00:42:18.370Z,4.51
2015-10-03T00:42:30.776Z,4.57
2015-10-03T00:42:43.141Z,4.58
2015-10-03T00:42:55.563Z,4.54
2015-10-03T00:43:07.969Z,4.56
2015-10-03T00:43:20.376Z,4.54
2015-10-03T00:43:32.787Z,4.5
2015-10-03T00:43:45.209Z,4.58
2015-10-03T00:43:57.662Z,4.47
2015-10-03T00:44:10.100Z,4.56
2015-10-03T00:44:22.506Z,4.57
2015-10-03T00:44:34.886Z,4.53
2015-10-03T00:44:47.276Z,4.61
2015-10-03T00:44:59.667Z,4.61
2015-10-03T00:45:12.058Z,4.57
2015-10-03T00:45:24.433Z,4.65
2015-10-03T00:45:36.816Z,4.54
2015-10-03T00:45:49.207Z,4.61
2015-10-03T00:46:01.613Z,4.61
2015-10-03T00:46:14.019Z,4.65
2015-10-03T00:46:26.426Z,4.57
2015-10-03T00:46:38.831Z,4.57
2015-10-03T00:46:51.268Z,4.64
2015-10-03T00:47:03.690Z,4.6
2015-10-03T00:47:16.128Z,4.64
2015-10-03T00:47:28.550Z,4.64
2015-10-03T00:47:40.985Z,4.57
2015-10-03T00:47:53.391Z,4.54
2015-10-03T00:48:05.782Z,4.64
2015-10-03T00:48:18.173Z,4.66
2015-10-03T00:48:30.579Z,4.54
2015-10-03T00:48:42.967Z,4.6
2015-10-03T00:48:55.373Z,4.6
2015-10-03T00:49:07.763Z,4.71
2015-10-03T00:49:20.154Z,4.57
2015-10-03T00:49:32.560Z,4.68
2015-10-03T00:49:44.981Z,4.71
2015-10-03T00:49:57.387Z,4.72
2015-10-03T00:50:09.794Z,4.72
2015-10-03T00:50:22.262Z,4.83
2015-10-03T00:50:34.653Z,4.68
2015-10-03T00:50:47.058Z,4.75
2015-10-03T00:50:59.449Z,4.79
2015-10-03T00:51:11.840Z,4.79
2015-10-03T00:51:24.246Z,4.74
2015-10-03T00:51:36.636Z,4.83
2015-10-03T00:51:49.044Z,4.71
2015-10-03T00:52:01.434Z,4.71
2015-10-03T00:52:13.872Z,4.75
2015-10-03T00:52:26.278Z,4.69
2015-10-03T00:52:38.684Z,4.72
2015-10-03T00:52:51.093Z,4.83
2015-10-03T00:53:03.514Z,4.71
2015-10-03T00:53:15.952Z,4.76
2015-10-03T00:53:28.389Z,4.83
2015-10-03T00:53:40.811Z,4.79
2015-10-03T00:53:53.484Z,4.75
2015-10-03T00:54:05.875Z,4.76
2015-10-03T00:54:18.265Z,4.75
2015-10-03T00:54:30.515Z,4.78
2015-10-03T00:54:42.906Z,4.83
2015-10-03T00:54:55.313Z,4.78
2015-10-03T00:55:07.720Z,4.84
2015-10-03T00:55:20.110Z,4.75
2015-10-03T00:55:32.516Z,4.84
2015-10-03T00:55:44.923Z,4.84
2015-10-03T00:55:57.331Z,4.9
2015-10-03T00:56:09.737Z,4.87
2015-10-03T00:56:22.159Z,4.83
2015-10-03T00:56:34.581Z,4.85
2015-10-03T00:56:47.003Z,4.84
2015-10-03T00:56:59.410Z,4.91
2015-10-03T00:57:11.816Z,4.85
2015-10-03T00:57:24.207Z,4.91
2015-10-03T00:57:36.598Z,4.9
2015-10-03T00:57:48.990Z,4.85
2015-10-03T00:58:01.396Z,4.88
2015-10-03T00:58:13.818Z,4.88
2015-10-03T00:58:26.225Z,4.85
2015-10-03T00:58:38.631Z,4.87
2015-10-03T00:58:51.070Z,4.85
2015-10-03T00:59:03.492Z,4.98
2015-10-03T00:59:15.914Z,4.94
2015-10-03T00:59:28.320Z,4.91
2015-10-03T00:59:40.711Z,4.95
2015-10-03T00:59:53.104Z,4.91
2015-10-03T01:00:04.775Z,4.94
2015-10-03T01:00:17.182Z,4.95
2015-10-03T01:00:28.150Z,4.92
2015-10-03T01:00:40.541Z,5.02
2015-10-03T01:00:52.934Z,4.9
2015-10-03T01:01:05.356Z,4.91
2015-10-03T01:01:17.746Z,4.97
2015-10-03T01:01:30.152Z,4.9
2015-10-03T01:01:42.590Z,4.98
2015-10-03T01:01:54.858Z,4.94
2015-10-03T01:02:07.139Z,4.87
2015-10-03T01:02:19.561Z,4.94
2015-10-03T01:02:31.967Z,4.88
2015-10-03T01:02:44.358Z,5
2015-10-03T01:02:56.751Z,4.92
2015-10-03T01:03:09.157Z,4.97
2015-10-03T01:03:21.548Z,4.97
2015-10-03T01:03:33.954Z,4.92
2015-10-03T01:03:46.345Z,4.95
2015-10-03T01:03:58.738Z,4.95
2015-10-03T01:04:11.144Z,4.91
2015-10-03T01:04:23.550Z,4.9
2015-10-03T01:04:35.956Z,4.94
2015-10-03T01:04:48.378Z,4.97
2015-10-03T01:05:00.803Z,4.85
2015-10-03T01:05:13.241Z,4.92
2015-10-03T01:05:25.662Z,4.92
2015-10-03T01:05:38.084Z,4.88
2015-10-03T01:05:50.475Z,4.97
2015-10-03T01:06:02.868Z,4.91
2015-10-03T01:06:15.274Z,4.92
2015-10-03T01:06:27.664Z,4.92
2015-10-03T01:06:40.055Z,4.94
2015-10-03T01:06:52.464Z,4.9
2015-10-03T01:07:04.855Z,4.94
2015-10-03T01:07:17.246Z,4.95
2015-10-03T01:07:29.652Z,4.92
2015-10-03T01:07:42.058Z,4.95
2015-10-03T01:07:54.467Z,4.95
2015-10-03T01:08:06.889Z,4.94
2015-10-03T01:08:19.327Z,4.94
2015-10-03T01:08:31.749Z,4.92
2015-10-03T01:08:44.139Z,4.94
2015-10-03T01:08:56.533Z,4.91
2015-10-03T01:09:08.939Z,4.92
2015-10-03T01:09:21.330Z,4.85
2015-10-03T01:09:33.720Z,4.92
2015-10-03T01:09:46.142Z,4.92
2015-10-03T01:09:58.520Z,4.9
2015-10-03T01:10:10.926Z,4.95
2015-10-03T01:10:23.348Z,4.92
2015-10-03T01:10:35.755Z,4.88
2015-10-03T01:10:48.161Z,4.88
2015-10-03T01:11:00.585Z,4.91
2015-10-03T01:11:13.007Z,4.95
2015-10-03T01:11:25.428Z,4.85
2015-10-03T01:11:37.819Z,4.76
2015-10-03T01:11:50.225Z,4.84
2015-10-03T01:12:02.619Z,4.76
2015-10-03T01:12:15.025Z,4.83
2015-10-03T01:12:27.416Z,4.79
2015-10-03T01:12:39.806Z,4.78
2015-10-03T01:12:52.228Z,4.79
2015-10-03T01:13:04.638Z,4.88
2015-10-03T01:13:17.059Z,4.83
2015-10-03T01:13:29.466Z,4.88
2015-10-03T01:13:41.903Z,4.9
2015-10-03T01:13:53.622Z,4.9
2015-10-03T01:14:06.046Z,4.84
2015-10-03T01:14:18.452Z,4.83
2015-10-03T01:14:30.843Z,4.84
2015-10-03T01:14:43.233Z,4.87
2015-10-03T01:14:55.624Z,4.79
2015-10-03T01:15:08.033Z,4.83
2015-10-03T01:15:20.424Z,4.85
2015-10-03T01:15:32.814Z,4.79
2015-10-03T01:15:45.205Z,4.83
2015-10-03T01:15:57.611Z,4.83
2015-10-03T01:16:10.021Z,4.76
2015-10-03T01:16:22.411Z,4.76
2015-10-03T01:16:34.833Z,4.84
2015-10-03T01:16:47.239Z,4.92
2015-10-03T01:16:59.661Z,4.75
2015-10-03T01:17:12.069Z,4.84
2015-10-03T01:17:24.460Z,4.83
2015-10-03T01:17:36.866Z,4.83
2015-10-03T01:17:49.257Z,4.65
2015-10-03T01:18:01.648Z,4.69
2015-10-03T01:18:14.041Z,4.71
2015-10-03T01:18:25.588Z,4.84
2015-10-03T01:18:37.979Z,4.83
2015-10-03T01:18:50.369Z,4.78
2015-10-03T01:19:02.776Z,4.74
2015-10-03T01:19:15.185Z,4.76
2015-10-03T01:19:27.591Z,4.78
2015-10-03T01:19:40.029Z,4.65
2015-10-03T01:19:52.450Z,4.85
2015-10-03T01:20:04.732Z,4.78
2015-10-03T01:20:17.141Z,4.79
2015-10-03T01:20:29.594Z,4.72
2015-10-03T01:20:41.985Z,4.71
2015-10-03T01:20:54.375Z,4.64
2015-10-03T01:21:06.766Z,4.68
2015-10-03T01:21:19.191Z,4.72
2015-10-03T01:21:31.581Z,4.72
2015-10-03T01:21:43.972Z,4.64
2015-10-03T01:21:56.383Z,4.71
2015-10-03T01:22:08.758Z,4.75
2015-10-03T01:22:21.166Z,4.69
2015-10-03T01:22:33.573Z,4.74
2015-10-03T01:22:45.979Z,4.83
2015-10-03T01:22:58.416Z,4.68
2015-10-03T01:23:10.810Z,4.78
2015-10-03T01:23:23.248Z,4.69
2015-10-03T01:23:35.685Z,4.79
2015-10-03T01:23:48.107Z,4.75
2015-10-03T01:24:00.513Z,4.72
2015-10-03T01:24:12.907Z,4.64
2015-10-03T01:24:25.313Z,4.75
2015-10-03T01:24:37.704Z,4.78
2015-10-03T01:24:49.938Z,4.74
2015-10-03T01:25:02.344Z,4.65
2015-10-03T01:25:14.737Z,4.66
2015-10-03T01:25:27.128Z,4.74
2015-10-03T01:25:39.534Z,4.78
2015-10-03T01:25:51.940Z,4.65
2015-10-03T01:26:04.346Z,4.65
2015-10-03T01:26:16.771Z,4.75
2015-10-03T01:26:29.209Z,4.76
2015-10-03T01:26:41.631Z,4.78
2015-10-03T01:26:54.052Z,4.84
2015-10-03T01:27:06.443Z,4.72
2015-10-03T01:27:18.837Z,4.65
2015-10-03T01:27:31.243Z,4.75
2015-10-03T01:27:43.649Z,4.74
2015-10-03T01:27:56.040Z,4.83
2015-10-03T01:28:08.446Z,4.79
2015-10-03T01:28:20.854Z,4.78
2015-10-03T01:28:32.542Z,4.61
2015-10-03T01:28:44.964Z,4.72
2015-10-03T01:28:57.370Z,4.69
2015-10-03T01:29:09.776Z,4.72
2015-10-03T01:29:22.201Z,4.83
2015-10-03T01:29:34.639Z,4.65
2015-10-03T01:29:47.060Z,4.72
2015-10-03T01:29:59.467Z,4.75
2015-10-03T01:30:11.857Z,4.69
2015-10-03T01:30:24.251Z,4.74
2015-10-03T01:30:36.657Z,4.68
2015-10-03T01:30:49.048Z,4.69
2015-10-03T01:31:01.470Z,4.71
2015-10-03T01:31:13.860Z,4.78
2015-10-03T01:31:26.254Z,4.69
2015-10-03T01:31:38.660Z,4.69
2015-10-03T01:31:51.082Z,4.68
2015-10-03T01:32:03.488Z,4.71
2015-10-03T01:32:15.910Z,4.74
2015-10-03T01:32:28.334Z,4.78
2015-10-03T01:32:40.756Z,4.83
2015-10-03T01:32:52.475Z,4.64
2015-10-03T01:33:04.756Z,4.78
2015-10-03T01:33:17.147Z,4.64
2015-10-03T01:33:29.540Z,4.72
2015-10-03T01:33:41.931Z,4.65
2015-10-03T01:33:54.337Z,4.69
2015-10-03T01:34:06.728Z,4.74
2015-10-03T01:34:19.118Z,4.78
2015-10-03T01:34:31.513Z,4.79
2015-10-03T01:34:43.919Z,4.72
2015-10-03T01:34:56.325Z,4.79
2015-10-03T01:35:08.716Z,4.83
2015-10-03T01:35:21.138Z,4.69
2015-10-03T01:35:33.562Z,4.78
2015-10-03T01:35:45.968Z,4.65
2015-10-03T01:35:58.390Z,4.61
2015-10-03T01:36:10.781Z,4.79
2015-10-03T01:36:23.171Z,4.79
2015-10-03T01:36:35.564Z,4.72
2015-10-03T01:36:47.954Z,4.79
2015-10-03T01:37:00.376Z,4.68
2015-10-03T01:37:12.626Z,4.66
2015-10-03T01:37:25.017Z,4.68
2015-10-03T01:37:37.427Z,4.75
2015-10-03T01:37:49.115Z,4.74
2015-10-03T01:38:01.521Z,4.72
2015-10-03T01:38:13.943Z,4.75
2015-10-03T01:38:26.380Z,4.72
2015-10-03T01:38:38.804Z,4.83
2015-10-03T01:38:51.226Z,4.75
2015-10-03T01:39:03.617Z,4.83
2015-10-03T01:39:16.023Z,4.69
2015-10-03T01:39:28.414Z,4.64
2015-10-03T01:39:40.807Z,4.69
2015-10-03T01:39:53.198Z,4.76
2015-10-03T01:40:05.620Z,4.6
2015-10-03T01:40:18.026Z,4.72
2015-10-03T01:40:30.432Z,4.68
2015-10-03T01:40:42.856Z,4.61
2015-10-03T01:40:55.278Z,4.68
2015-10-03T01:41:07.715Z,4.71
2015-10-03T01:41:20.137Z,4.66
2015-10-03T01:41:31.856Z,4.74
2015-10-03T01:41:44.251Z,4.71
2015-10-03T01:41:56.641Z,4.68
2015-10-03T01:42:09.032Z,4.75
2015-10-03T01:42:21.423Z,4.69
2015-10-03T01:42:33.813Z,4.69
2015-10-03T01:42:46.221Z,4.74
2015-10-03T01:42:58.612Z,4.71
2015-10-03T01:43:11.003Z,4.69
2015-10-03T01:43:23.409Z,4.74
2015-10-03T01:43:35.834Z,4.68
2015-10-03T01:43:48.240Z,4.71
2015-10-03T01:44:00.678Z,4.76
2015-10-03T01:44:13.099Z,4.68
2015-10-03T01:44:25.521Z,4.76
2015-10-03T01:44:37.945Z,4.83
2015-10-03T01:44:50.367Z,4.74
2015-10-03T01:45:02.758Z,4.78
2015-10-03T01:45:15.164Z,4.65
2015-10-03T01:45:27.555Z,4.68
2015-10-03T01:45:39.948Z,4.65
2015-10-03T01:45:52.339Z,4.74
2015-10-03T01:46:04.745Z,4.69
2015-10-03T01:46:17.136Z,4.75
2015-10-03T01:46:29.542Z,4.72
2015-10-03T01:46:41.936Z,4.75
2015-10-03T01:46:54.342Z,4.87
2015-10-03T01:47:06.779Z,4.79
2015-10-03T01:47:19.186Z,4.79
2015-10-03T01:47:31.623Z,4.76
2015-10-03T01:47:44.079Z,4.72
2015-10-03T01:47:56.470Z,4.78
2015-10-03T01:48:08.876Z,4.85
2015-10-03T01:48:21.267Z,4.78
2015-10-03T01:48:33.657Z,4.75
2015-10-03T01:48:46.050Z,4.83
2015-10-03T01:48:58.472Z,4.74
2015-10-03T01:49:10.847Z,4.84
2015-10-03T01:49:23.253Z,4.76
2015-10-03T01:49:35.644Z,4.78
2015-10-03T01:49:48.054Z,4.72
2015-10-03T01:50:00.460Z,4.72
2015-10-03T01:50:12.866Z,4.75
2015-10-03T01:50:25.304Z,4.83
2015-10-03T01:50:37.726Z,4.94
2015-10-03T01:50:50.151Z,4.79
2015-10-03T01:51:02.557Z,4.9
2015-10-03T01:51:14.963Z,4.83
2015-10-03T01:51:27.338Z,4.9
2015-10-03T01:51:39.729Z,4.83
2015-10-03T01:51:51.418Z,4.9
2015-10-03T01:52:03.809Z,4.83
2015-10-03T01:52:16.215Z,4.91
2015-10-03T01:52:28.606Z,4.84
2015-10-03T01:52:40.996Z,4.87
2015-10-03T01:52:53.406Z,4.85
2015-10-03T01:53:05.812Z,4.85
2015-10-03T01:53:17.515Z,4.9
2015-10-03T01:53:29.953Z,4.92
2015-10-03T01:53:42.374Z,4.91
2015-10-03T01:53:54.814Z,4.88
2015-10-03T01:54:07.205Z,4.92
2015-10-03T01:54:19.611Z,4.9
2015-10-03T01:54:32.001Z,4.88
2015-10-03T01:54:44.392Z,4.85
2015-10-03T01:54:56.785Z,4.85
2015-10-03T01:55:09.191Z,4.88
2015-10-03T01:55:20.878Z,4.84
2015-10-03T01:55:33.300Z,4.78
2015-10-03T01:55:45.519Z,4.83
2015-10-03T01:55:57.928Z,4.83
2015-10-03T01:56:10.335Z,4.83
2015-10-03T01:56:22.741Z,4.9
2015-10-03T01:56:35.163Z,4.85
2015-10-03T01:56:47.600Z,4.85
2015-10-03T01:57:00.041Z,4.9
2015-10-03T01:57:12.447Z,4.91
2015-10-03T01:57:24.838Z,4.9
2015-10-03T01:57:37.228Z,4.9
2015-10-03T01:57:49.622Z,4.88
2015-10-03T01:58:02.028Z,4.87
2015-10-03T01:58:14.419Z,4.97
2015-10-03T01:58:26.825Z,4.94
2015-10-03T01:58:39.216Z,4.85
2015-10-03T01:58:51.625Z,4.88
2015-10-03T01:59:04.031Z,4.78
2015-10-03T01:59:16.422Z,4.87
2015-10-03T01:59:28.828Z,4.87
2015-10-03T01:59:41.234Z,4.91
2015-10-03T01:59:53.659Z,4.92
2015-10-03T02:00:05.940Z,4.79
2015-10-03T02:00:18.362Z,4.84
2015-10-03T02:00:30.815Z,4.87
2015-10-03T02:00:43.206Z,4.92
2015-10-03T02:00:55.599Z,4.83
2015-10-03T02:01:08.005Z,4.88
2015-10-03T02:01:20.427Z,4.79
2015-10-03T02:01:32.817Z,4.92
2015-10-03T02:01:45.208Z,4.9
2015-10-03T02:01:57.602Z,4.9
2015-10-03T02:02:09.992Z,4.88
2015-10-03T02:02:22.398Z,4.78
2015-10-03T02:02:34.805Z,4.85
2015-10-03T02:02:47.227Z,4.84
2015-10-03T02:02:59.635Z,4.85
2015-10-03T02:03:12.057Z,4.83
2015-10-03T02:03:24.494Z,4.87
2015-10-03T02:03:36.932Z,4.78
2015-10-03T02:03:49.354Z,4.84
2015-10-03T02:04:01.778Z,4.85
2015-10-03T02:04:14.169Z,4.85
2015-10-03T02:04:26.560Z,4.9
2015-10-03T02:04:38.950Z,4.9
2015-10-03T02:04:51.341Z,4.83
2015-10-03T02:05:03.750Z,4.83
2015-10-03T02:05:16.172Z,4.92
2015-10-03T02:05:28.610Z,4.83
2015-10-03T02:05:41.000Z,4.91
2015-10-03T02:05:53.406Z,4.94
2015-10-03T02:06:05.816Z,4.87
2015-10-03T02:06:18.222Z,4.9
2015-10-03T02:06:30.659Z,4.94
2015-10-03T02:06:43.081Z,4.95
2015-10-03T02:06:55.488Z,4.94
2015-10-03T02:07:07.880Z,4.85
2015-10-03T02:07:20.271Z,4.92
2015-10-03T02:07:32.677Z,4.98
2015-10-03T02:07:45.068Z,4.92
2015-10-03T02:07:57.458Z,4.98
2015-10-03T02:08:09.869Z,4.94
2015-10-03T02:08:22.275Z,4.95
2015-10-03T02:08:34.681Z,4.88
2015-10-03T02:08:47.119Z,4.94
2015-10-03T02:08:59.540Z,4.97
2015-10-03T02:09:11.965Z,4.9
2015-10-03T02:09:24.387Z,4.94
2015-10-03T02:09:36.778Z,4.97
2015-10-03T02:09:49.168Z,4.87
2015-10-03T02:10:01.575Z,4.97
2015-10-03T02:10:13.968Z,4.92
2015-10-03T02:10:26.359Z,4.91
2015-10-03T02:10:38.765Z,4.9
2015-10-03T02:10:51.156Z,4.94
2015-10-03T02:11:03.546Z,4.94
2015-10-03T02:11:15.969Z,4.92
2015-10-03T02:11:28.391Z,4.97
2015-10-03T02:11:40.797Z,5
2015-10-03T02:11:53.204Z,5
2015-10-03T02:12:05.626Z,5
2015-10-03T02:12:17.348Z,4.97
2015-10-03T02:12:29.770Z,5.03
2015-10-03T02:12:42.223Z,4.98
2015-10-03T02:12:54.614Z,4.97
2015-10-03T02:13:07.005Z,5
2015-10-03T02:13:19.398Z,4.97
2015-10-03T02:13:31.804Z,5.03
2015-10-03T02:13:44.195Z,5
2015-10-03T02:13:56.586Z,4.95
2015-10-03T02:14:08.992Z,4.98
2015-10-03T02:14:21.385Z,5.03
2015-10-03T02:14:33.791Z,4.98
2015-10-03T02:14:46.197Z,4.98
2015-10-03T02:14:58.603Z,5
2015-10-03T02:15:10.885Z,5
2015-10-03T02:15:23.308Z,5.02
2015-10-03T02:15:35.730Z,5.1
2015-10-03T02:15:48.137Z,5.03
2015-10-03T02:16:00.527Z,5
2015-10-03T02:16:12.922Z,5.08
2015-10-03T02:16:25.328Z,5.05
2015-10-03T02:16:37.719Z,5
2015-10-03T02:16:50.109Z,5.03
2015-10-03T02:17:02.500Z,5.08
2015-10-03T02:17:14.908Z,5.1
2015-10-03T02:17:27.299Z,5.1
2015-10-03T02:17:39.705Z,5.16
2015-10-03T02:17:52.111Z,5.06
2015-10-03T02:18:04.533Z,5.09
2015-10-03T02:18:17.005Z,5.16
2015-10-03T02:18:29.411Z,5.08
2015-10-03T02:18:41.692Z,5.13
2015-10-03T02:18:53.974Z,5.16
2015-10-03T02:19:06.364Z,5.09
2015-10-03T02:19:18.758Z,5.23
2015-10-03T02:19:31.164Z,5.2
2015-10-03T02:19:43.555Z,5.15
2015-10-03T02:19:55.945Z,5.24
2015-10-03T02:20:08.352Z,5.3
2015-10-03T02:20:20.744Z,5.31
2015-10-03T02:20:33.135Z,5.26
2015-10-03T02:20:45.526Z,5.26
2015-10-03T02:20:57.932Z,5.26
2015-10-03T02:21:10.338Z,5.28
2015-10-03T02:21:22.763Z,5.31
2015-10-03T02:21:35.185Z,5.26
2015-10-03T02:21:47.607Z,5.31
2015-10-03T02:22:00.029Z,5.3
2015-10-03T02:22:12.466Z,5.28
2015-10-03T02:22:24.750Z,5.26
2015-10-03T02:22:37.141Z,5.31
2015-10-03T02:22:49.547Z,5.33
2015-10-03T02:23:01.938Z,5.33
2015-10-03T02:23:14.328Z,5.34
2015-10-03T02:23:26.722Z,5.34
2015-10-03T02:23:39.113Z,5.41
2015-10-03T02:23:51.519Z,5.39
2015-10-03T02:24:03.925Z,5.44
2015-10-03T02:24:16.331Z,5.36
2015-10-03T02:24:28.741Z,5.44
2015-10-03T02:24:41.147Z,5.36
2015-10-03T02:24:53.569Z,5.46
2015-10-03T02:25:05.991Z,5.39
2015-10-03T02:25:18.413Z,5.39
2015-10-03T02:25:30.836Z,5.36
2015-10-03T02:25:43.258Z,5.39
2015-10-03T02:25:55.649Z,5.34
2015-10-03T02:26:08.055Z,5.37
2015-10-03T02:26:20.446Z,5.3
2015-10-03T02:26:32.839Z,5.39
2015-10-03T02:26:45.230Z,5.28
2015-10-03T02:26:57.621Z,5.33
2015-10-03T02:27:10.027Z,5.39
2015-10-03T02:27:21.699Z,5.3
2015-10-03T02:27:34.124Z,5.31
2015-10-03T02:27:46.530Z,5.39
2015-10-03T02:27:58.936Z,5.3
2015-10-03T02:28:11.358Z,5.26
2015-10-03T02:28:23.796Z,5.36
2015-10-03T02:28:36.235Z,5.33
2015-10-03T02:28:48.626Z,5.37
2015-10-03T02:29:01.032Z,5.33
2015-10-03T02:29:13.423Z,5.31
2015-10-03T02:29:25.813Z,5.34
2015-10-03T02:29:38.207Z,5.27
2015-10-03T02:29:50.613Z,5.28
2015-10-03T02:30:03.019Z,5.23
2015-10-03T02:30:15.410Z,5.33
2015-10-03T02:30:27.676Z,5.3
2015-10-03T02:30:40.100Z,5.33
2015-10-03T02:30:52.507Z,5.26
2015-10-03T02:31:04.929Z,5.3
2015-10-03T02:31:17.335Z,5.3
2015-10-03T02:31:29.757Z,5.23
2015-10-03T02:31:41.446Z,5.26
2015-10-03T02:31:53.837Z,5.26
2015-10-03T02:32:06.243Z,5.27
2015-10-03T02:32:18.634Z,5.18
2015-10-03T02:32:31.044Z,5.23
2015-10-03T02:32:43.435Z,5.15
2015-10-03T02:32:55.825Z,5.16
2015-10-03T02:33:08.216Z,5.12
2015-10-03T02:33:20.622Z,5.15
2015-10-03T02:33:33.030Z,5.1
2015-10-03T02:33:45.421Z,5.13
2015-10-03T02:33:57.843Z,5.15
2015-10-03T02:34:10.265Z,5.03
2015-10-03T02:34:22.687Z,5.13
2015-10-03T02:34:35.126Z,5.08
2015-10-03T02:34:47.548Z,5.15
2015-10-03T02:34:59.954Z,5.08
2015-10-03T02:35:12.345Z,5.12
2015-10-03T02:35:24.751Z,5.1
2015-10-03T02:35:37.146Z,5.13
2015-10-03T02:35:49.552Z,5.16
2015-10-03T02:36:01.943Z,5.15
2015-10-03T02:36:14.349Z,5.23
2015-10-03T02:36:26.771Z,5.1
2015-10-03T02:36:39.180Z,5.16
2015-10-03T02:36:51.602Z,5.15
2015-10-03T02:37:04.008Z,5.2
2015-10-03T02:37:16.446Z,5.2
2015-10-03T02:37:28.852Z,5.2
2015-10-03T02:37:41.244Z,5.18
2015-10-03T02:37:53.619Z,5.18
2015-10-03T02:38:06.010Z,5.21
2015-10-03T02:38:18.401Z,5.2
2015-10-03T02:38:30.807Z,5.09
2015-10-03T02:38:43.216Z,5.13
2015-10-03T02:38:55.607Z,5.27
2015-10-03T02:39:07.997Z,5.24
2015-10-03T02:39:20.404Z,5.21
2015-10-03T02:39:32.794Z,5.1
2015-10-03T02:39:45.188Z,5.2
2015-10-03T02:39:57.594Z,5.2
2015-10-03T02:40:10.016Z,5.09
2015-10-03T02:40:22.454Z,5.12
2015-10-03T02:40:34.891Z,5.24
2015-10-03T02:40:47.284Z,5.23
2015-10-03T02:40:59.674Z,5.26
2015-10-03T02:41:11.346Z,5.1
2015-10-03T02:41:23.737Z,5.27
2015-10-03T02:41:36.127Z,5.31
2015-10-03T02:41:48.521Z,5.28
2015-10-03T02:42:00.209Z,5.24
2015-10-03T02:42:12.599Z,5.28
2015-10-03T02:42:25.005Z,5.28
2015-10-03T02:42:37.412Z,5.28
2015-10-03T02:42:49.821Z,5.27
2015-10-03T02:43:02.258Z,5.28
2015-10-03T02:43:14.680Z,5.24
2015-10-03T02:43:27.102Z,5.31
2015-10-03T02:43:39.540Z,5.36
2015-10-03T02:43:51.949Z,5.36
2015-10-03T02:44:04.355Z,5.27
2015-10-03T02:44:16.746Z,5.27
2015-10-03T02:44:29.136Z,5.27
2015-10-03T02:44:41.527Z,5.36
2015-10-03T02:44:53.921Z,5.34
2015-10-03T02:45:05.608Z,5.36
2015-10-03T02:45:17.999Z,5.3
2015-10-03T02:45:30.405Z,5.28